Time;durP1;ratioP1;P1;durP2;ratioP2;P2;SDS_P1;SDS_P2;PMS_P1;PMS_P2;Temp;Humidity;BMP_temperature;BMP_pressure;BME280_temperature;BME280_humidity;BME280_pressure;Samples;Min_cycle;Max_cycle;Signal;HPM_P1;HPM_P2
2021/08/10 00:01:50;;;;;;;11.63;8.35;;;;;;;14.68;71.53;100708.07;1690175;83;26256;-76
2021/08/10 00:04:16;;;;;;;10.55;8.40;;;;;;;14.64;71.79;100707.14;1710404;83;25657;-76
2021/08/10 00:06:42;;;;;;;11.53;7.60;;;;;;;14.64;71.74;100703.05;1710431;83;27271;-76
2021/08/10 00:09:08;;;;;;;12.53;8.18;;;;;;;14.64;71.80;100703.59;1710303;83;25693;-75
2021/08/10 00:11:35;;;;;;;9.70;7.70;;;;;;;14.64;71.92;100714.48;1710422;83;25757;-75
2021/08/10 00:14:01;;;;;;;12.63;7.80;;;;;;;14.64;71.78;100713.95;1710438;83;25658;-76
2021/08/10 00:16:29;;;;;;;11.60;7.33;;;;;;;14.64;71.86;100711.77;1710465;83;25706;-76
2021/08/10 00:19:00;;;;;;;9.73;7.72;;;;;;;14.60;71.52;100714.34;1710324;83;27343;-76
2021/08/10 00:21:27;;;;;;;14.33;8.45;;;;;;;14.60;71.75;100712.19;1710408;83;25697;-76
2021/08/10 00:23:53;;;;;;;18.50;8.10;;;;;;;14.57;72.00;100706.79;1710382;83;25682;-76
2021/08/10 00:26:20;;;;;;;10.95;8.10;;;;;;;14.53;72.32;100718.11;1710329;83;26940;-76
2021/08/10 00:28:47;;;;;;;15.20;9.03;;;;;;;14.49;72.51;100714.42;1710422;83;25722;-76
2021/08/10 00:31:13;;;;;;;14.78;8.58;;;;;;;14.46;72.75;100711.02;1710449;83;27926;-75
2021/08/10 00:33:40;;;;;;;14.78;9.15;;;;;;;14.44;72.68;100708.61;1710272;83;25873;-74
2021/08/10 00:36:06;;;;;;;13.32;7.87;;;;;;;14.43;72.76;100710.30;1710424;83;25814;-74
2021/08/10 00:38:33;;;;;;;12.35;8.20;;;;;;;14.43;72.76;100711.08;1710385;83;26366;-74
2021/08/10 00:41:00;;;;;;;14.90;9.43;;;;;;;14.42;72.71;100705.42;1710366;83;25737;-74
2021/08/10 00:43:39;;;;;;;11.20;8.43;;;;;;;14.43;72.74;100708.36;1710356;83;27318;-76
2021/08/10 00:46:10;;;;;;;14.45;8.65;;;;;;;14.44;72.74;100713.23;1710456;83;25774;-76
2021/08/10 00:48:37;;;;;;;12.70;8.10;;;;;;;14.45;72.96;100706.11;1710425;83;26286;-77
2021/08/10 00:51:07;;;;;;;15.85;9.08;;;;;;;14.44;72.89;100706.42;1710328;83;26409;-77
2021/08/10 00:53:34;;;;;;;13.62;9.60;;;;;;;14.45;72.85;100713.48;1710400;83;25734;-77
2021/08/10 00:56:04;;;;;;;12.03;9.10;;;;;;;14.46;73.03;100712.37;1710364;83;27328;-77
2021/08/10 00:58:32;;;;;;;13.45;8.43;;;;;;;14.45;72.93;100712.91;1700282;83;25805;-77
2021/08/10 01:00:58;;;;;;;13.80;8.30;;;;;;;14.45;73.03;100716.99;1710324;83;25799;-77
2021/08/10 01:03:25;;;;;;;11.60;8.05;;;;;;;14.45;73.13;100709.40;1700101;83;26332;-76
2021/08/10 01:05:52;;;;;;;12.65;8.40;;;;;;;14.44;72.91;100718.13;1710386;83;25778;-75
2021/08/10 01:08:49;;;;;;;9.70;8.28;;;;;;;14.43;72.80;100710.30;1710329;83;28055;-76
2021/08/10 01:11:27;;;;;;;17.42;8.48;;;;;;;14.42;72.69;100715.48;1710299;83;25685;-76
2021/08/10 01:14:14;;;;;;;11.97;8.30;;;;;;;14.38;72.72;100710.69;1710416;83;25770;-75
2021/08/10 01:16:57;;;;;;;13.72;8.38;;;;;;;14.35;72.84;100714.62;1709231;83;26225;-75
2021/08/10 01:19:41;;;;;;;13.90;7.92;;;;;;;14.31;72.59;100712.32;1710145;83;25662;-76
2021/08/10 01:22:10;;;;;;;17.42;9.00;;;;;;;14.29;73.03;100710.48;1708974;83;27412;-76
2021/08/10 01:24:51;;;;;;;13.00;8.38;;;;;;;14.27;73.13;100714.89;1710420;83;25746;-76
2021/08/10 01:27:42;;;;;;;12.20;8.45;;;;;;;14.26;73.28;100711.13;1710557;83;25749;-77
2021/08/10 01:30:17;;;;;;;12.23;8.25;;;;;;;14.26;73.21;100711.13;1696966;83;25848;-77
2021/08/10 01:32:46;;;;;;;15.30;8.45;;;;;;;14.26;73.49;100705.13;1706483;83;25654;-77
2021/08/10 01:35:16;;;;;;;13.22;7.72;;;;;;;14.25;73.57;100704.91;1709839;83;27311;-76
2021/08/10 01:37:47;;;;;;;10.82;7.90;;;;;;;14.24;73.65;100703.29;1686329;83;25931;-76
2021/08/10 01:40:14;;;;;;;12.63;7.90;;;;;;;14.24;73.83;100707.38;1710312;83;25765;-76
2021/08/10 01:42:42;;;;;;;9.95;8.00;;;;;;;14.23;73.86;100706.33;1686644;83;25678;-75
2021/08/10 01:45:11;;;;;;;15.38;8.00;;;;;;;14.21;73.70;100701.21;1710448;83;25838;-76
2021/08/10 01:47:43;;;;;;;11.12;7.87;;;;;;;14.20;73.60;100702.35;1710588;83;27334;-76
2021/08/10 01:50:10;;;;;;;15.90;7.78;;;;;;;14.20;73.56;100698.27;1710251;83;25768;-76
2021/08/10 01:52:37;;;;;;;9.38;7.33;;;;;;;14.18;73.67;100698.59;1709616;83;25698;-76
2021/08/10 01:55:05;;;;;;;13.03;7.92;;;;;;;14.16;73.54;100697.30;1710344;83;25761;-75
2021/08/10 01:57:32;;;;;;;11.83;7.97;;;;;;;14.15;73.79;100694.36;1687401;83;26392;-75
2021/08/10 02:00:00;;;;;;;8.58;7.37;;;;;;;14.14;73.96;100703.06;1710555;83;27384;-75
2021/08/10 02:02:26;;;;;;;11.40;7.90;;;;;;;14.12;73.90;100700.44;1710420;83;25761;-74
2021/08/10 02:04:53;;;;;;;11.85;7.33;;;;;;;14.09;73.93;100697.79;1710466;83;25788;-74
2021/08/10 02:07:19;;;;;;;10.50;7.65;;;;;;;14.08;73.86;100704.91;1710254;83;25672;-75
2021/08/10 02:09:48;;;;;;;9.50;7.53;;;;;;;14.06;73.96;100701.72;1710278;83;25745;-75
2021/08/10 02:12:15;;;;;;;14.40;7.85;;;;;;;14.05;73.88;100698.78;1710473;83;28504;-76
2021/08/10 02:14:45;;;;;;;10.95;7.40;;;;;;;14.04;73.79;100697.96;1710628;83;26413;-75
2021/08/10 02:17:15;;;;;;;14.55;7.92;;;;;;;14.03;73.93;100698.28;1710637;83;25742;-75
2021/08/10 02:19:43;;;;;;;14.07;7.22;;;;;;;14.00;74.25;100696.45;1710416;82;26222;-75
2021/08/10 02:22:15;;;;;;;9.90;7.78;;;;;;;13.97;74.05;100698.45;1707401;83;25825;-76
2021/08/10 02:24:49;;;;;;;13.03;7.67;;;;;;;13.96;73.83;100700.94;1705918;84;27930;-76
2021/08/10 02:27:33;;;;;;;10.82;7.00;;;;;;;13.94;73.97;100692.85;1705832;83;26421;-76
2021/08/10 02:30:08;;;;;;;12.40;7.30;;;;;;;13.91;73.98;100694.31;1705005;84;25708;-76
2021/08/10 02:32:35;;;;;;;10.50;6.70;;;;;;;13.89;73.96;100695.17;1704928;83;25730;-75
2021/08/10 02:35:04;;;;;;;14.87;7.65;;;;;;;13.87;73.92;100699.34;1705978;84;25697;-75
2021/08/10 02:37:33;;;;;;;13.03;7.35;;;;;;;13.82;74.09;100705.20;1706041;83;33316;-74
2021/08/10 02:40:05;;;;;;;13.18;7.42;;;;;;;13.79;73.97;100705.02;1705928;84;25760;-74
2021/08/10 02:42:32;;;;;;;9.15;6.97;;;;;;;13.76;74.18;100703.75;1706039;84;26374;-75
2021/08/10 02:45:01;;;;;;;17.30;7.85;;;;;;;13.72;74.10;100696.55;1705969;83;25698;-77
2021/08/10 02:47:30;;;;;;;11.10;7.20;;;;;;;13.70;74.59;100690.63;1705907;84;25798;-75
2021/08/10 02:49:57;;;;;;;11.95;7.47;;;;;;;13.67;74.55;100692.62;1706024;84;27854;-76
2021/08/10 02:52:24;;;;;;;14.50;8.00;;;;;;;13.62;74.82;100687.60;1705851;84;25658;-76
2021/08/10 02:54:51;;;;;;;12.82;7.50;;;;;;;13.60;74.84;100689.03;1705898;83;25763;-77
2021/08/10 02:57:37;;;;;;;10.38;7.08;;;;;;;13.59;74.81;100693.67;1705850;84;26379;-76
2021/08/10 03:00:11;;;;;;;12.80;7.83;;;;;;;13.60;74.77;100699.90;1705654;83;26411;-74
2021/08/10 03:02:48;;;;;;;11.73;7.50;;;;;;;13.60;74.84;100693.10;1705835;84;27907;-75
2021/08/10 03:05:18;;;;;;;12.45;7.53;;;;;;;13.59;74.71;100695.03;1705872;83;25732;-76
2021/08/10 03:07:58;;;;;;;;;;;;;;;13.58;74.81;100689.91;1708497;84;25738;-77
2021/08/10 03:10:29;;;;;;;11.25;6.95;;;;;;;13.56;74.86;100696.23;1705873;84;25766;-77
2021/08/10 03:13:00;;;;;;;13.35;7.25;;;;;;;13.52;74.69;100697.97;1705986;84;26324;-76
2021/08/10 03:15:28;;;;;;;13.70;6.92;;;;;;;13.49;74.88;100702.70;1705933;84;27383;-76
2021/08/10 03:18:03;;;;;;;9.85;7.17;;;;;;;13.47;74.88;100703.56;1705826;83;25786;-75
2021/08/10 03:20:32;;;;;;;11.18;7.35;;;;;;;13.45;75.19;100699.83;1705781;83;26445;-75
2021/08/10 03:23:00;;;;;;;;;;;;;;;13.44;75.38;100699.58;1708117;84;26310;-75
2021/08/10 03:25:27;;;;;;;11.25;7.70;;;;;;;13.44;75.72;100695.50;1705684;84;25724;-75
2021/08/10 03:27:55;;;;;;;10.98;7.05;;;;;;;13.40;75.75;100698.05;1698904;83;28123;-75
2021/08/10 03:30:22;;;;;;;14.50;8.23;;;;;;;13.40;75.98;100698.05;1720308;83;25721;-75
2021/08/10 03:32:52;;;;;;;11.55;6.87;;;;;;;13.42;76.03;100690.95;1720448;83;25784;-73
2021/08/10 03:35:19;;;;;;;11.70;7.25;;;;;;;13.44;76.17;100698.22;1719216;83;25741;-73
2021/08/10 03:37:46;;;;;;;11.30;7.33;;;;;;;13.45;76.14;100694.39;1710351;83;25770;-73
2021/08/10 03:40:14;;;;;;;11.48;8.15;;;;;;;13.45;76.22;100693.83;1710382;83;27402;-73
2021/08/10 03:42:41;;;;;;;11.08;7.47;;;;;;;13.45;76.29;100688.39;1690217;83;26275;-73
2021/08/10 03:45:09;;;;;;;11.45;7.25;;;;;;;13.45;76.35;100685.67;1710408;83;25737;-73
2021/08/10 03:47:38;;;;;;;9.58;7.30;;;;;;;13.48;76.41;100690.23;1710439;83;25786;-74
2021/08/10 03:50:07;;;;;;;10.78;7.30;;;;;;;13.50;76.55;100692.06;1690313;83;25848;-76
2021/08/10 03:52:33;;;;;;;10.32;7.30;;;;;;;13.50;76.52;100686.62;1710150;83;27341;-76
2021/08/10 03:55:02;;;;;;;10.68;6.87;;;;;;;13.52;76.62;100687.92;1690136;83;25747;-76
2021/08/10 03:57:32;;;;;;;12.68;7.75;;;;;;;13.55;76.62;100687.83;1710575;83;25702;-76
2021/08/10 03:59:59;;;;;;;10.08;6.87;;;;;;;13.56;76.59;100684.80;1710365;83;25838;-76
2021/08/10 04:02:26;;;;;;;11.88;7.70;;;;;;;13.58;76.53;100680.40;1710466;83;25734;-75
2021/08/10 04:04:55;;;;;;;12.45;7.72;;;;;;;13.58;76.39;100680.40;1710414;83;27382;-75
2021/08/10 04:07:22;;;;;;;10.08;6.65;;;;;;;13.61;76.37;100683.84;1710338;83;25751;-75
2021/08/10 04:09:50;;;;;;;12.80;7.72;;;;;;;13.62;76.39;100675.91;1690239;83;25761;-75
2021/08/10 04:12:17;;;;;;;13.00;7.70;;;;;;;13.63;76.43;100678.88;1710355;83;25689;-75
2021/08/10 04:14:44;;;;;;;9.55;7.30;;;;;;;13.63;76.30;100678.31;1710427;83;26393;-75
2021/08/10 04:17:11;;;;;;;10.38;6.90;;;;;;;13.64;76.25;100677.77;1710130;83;27877;-75
2021/08/10 04:19:47;;;;;;;10.13;6.42;;;;;;;13.63;76.27;100678.31;1710280;83;25708;-75
2021/08/10 04:22:14;;;;;;;12.90;7.25;;;;;;;13.64;76.48;100677.20;1708422;83;25694;-75
2021/08/10 04:24:41;;;;;;;13.32;8.05;;;;;;;13.68;76.72;100674.64;1709346;83;25709;-74
2021/08/10 04:27:07;;;;;;;14.25;7.20;;;;;;;13.70;76.99;100672.39;1710402;83;25778;-74
2021/08/10 04:29:34;;;;;;;10.85;7.83;;;;;;;13.74;77.02;100683.42;1710484;83;27463;-74
2021/08/10 04:32:00;;;;;;;10.45;7.62;;;;;;;13.76;77.12;100684.72;1710331;83;25686;-74
2021/08/10 04:34:27;;;;;;;13.85;7.12;;;;;;;13.79;77.26;100677.28;1710423;83;25681;-74
2021/08/10 04:36:53;;;;;;;11.08;7.17;;;;;;;13.86;77.58;100682.78;1710367;83;25995;-75
2021/08/10 04:39:19;;;;;;;13.60;7.83;;;;;;;13.90;77.71;100681.03;1710435;83;25699;-75
2021/08/10 04:41:46;;;;;;;13.15;7.85;;;;;;;13.96;77.88;100679.19;1703391;83;27905;-75
2021/08/10 04:44:12;;;;;;;16.77;8.98;;;;;;;14.00;77.84;100677.98;1703199;84;25702;-75
2021/08/10 04:46:38;;;;;;;14.40;8.55;;;;;;;14.06;77.89;100679.39;1709965;83;25643;-75
2021/08/10 04:49:05;;;;;;;10.55;8.25;;;;;;;14.12;78.08;100679.47;1710304;83;25789;-75
2021/08/10 04:51:32;;;;;;;12.98;8.58;;;;;;;14.20;78.25;100683.31;1710387;83;25624;-75
2021/08/10 04:53:59;;;;;;;11.80;7.83;;;;;;;14.28;78.35;100687.11;1710373;83;27518;-75
2021/08/10 04:56:25;;;;;;;12.85;8.50;;;;;;;14.37;78.49;100683.25;1710221;83;25793;-75
2021/08/10 04:58:52;;;;;;;10.88;7.45;;;;;;;14.49;78.96;100675.77;1708500;83;25713;-76
2021/08/10 05:01:18;;;;;;;13.85;8.05;;;;;;;14.63;79.33;100672.08;1710237;83;26393;-76
2021/08/10 05:03:44;;;;;;;11.18;7.33;;;;;;;14.78;79.61;100676.97;1710380;83;25781;-76
2021/08/10 05:06:11;;;;;;;11.18;7.40;;;;;;;14.90;79.60;100672.19;1709775;83;27379;-76
2021/08/10 05:08:37;;;;;;;11.28;7.35;;;;;;;15.03;79.38;100675.78;1709682;83;25809;-76
2021/08/10 05:11:12;;;;;;;11.55;8.33;;;;;;;15.16;79.61;100673.38;1710368;83;25651;-73
2021/08/10 05:13:40;;;;;;;10.00;6.85;;;;;;;15.28;79.51;100674.81;1710360;83;25781;-73
2021/08/10 05:16:07;;;;;;;9.78;7.22;;;;;;;15.43;79.38;100678.88;1710467;83;25828;-73
2021/08/10 05:18:34;;;;;;;9.73;7.30;;;;;;;15.56;79.35;100679.76;1710556;83;27390;-76
2021/08/10 05:21:01;;;;;;;8.83;7.15;;;;;;;15.68;79.22;100685.27;1709670;83;25745;-75
2021/08/10 05:23:28;;;;;;;10.72;7.53;;;;;;;15.85;79.37;100690.34;1709776;83;25709;-76
2021/08/10 05:25:54;;;;;;;9.73;6.85;;;;;;;16.02;79.66;100688.02;1710246;83;25771;-75
2021/08/10 05:28:21;;;;;;;10.85;6.92;;;;;;;16.20;79.51;100693.54;1710409;83;25755;-76
2021/08/10 05:30:47;;;;;;;11.55;6.97;;;;;;;16.40;79.32;100698.71;1709873;83;27993;-76
2021/08/10 05:33:13;;;;;;;10.23;6.78;;;;;;;16.57;79.13;100703.75;1710225;83;25801;-76
2021/08/10 05:35:40;;;;;;;8.18;6.40;;;;;;;16.72;78.71;100695.44;1710355;83;25806;-76
2021/08/10 05:38:06;;;;;;;10.98;6.80;;;;;;;16.87;78.53;100695.36;1686325;83;25739;-76
2021/08/10 05:40:34;;;;;;;7.33;6.45;;;;;;;17.01;78.51;100694.47;1686605;83;25853;-75
2021/08/10 05:43:01;;;;;;;16.77;5.90;;;;;;;17.20;78.61;100688.41;1710006;83;28079;-75
2021/08/10 05:45:27;;;;;;;16.10;9.00;;;;;;;17.42;77.92;100686.30;1710229;83;25752;-75
2021/08/10 05:47:54;;;;;;;15.80;11.05;;;;;;;17.60;77.65;100692.30;1709805;83;26382;-75
2021/08/10 05:50:20;;;;;;;10.60;6.72;;;;;;;17.82;77.45;100693.70;1710319;83;25827;-75
2021/08/10 05:52:47;;;;;;;8.03;5.10;;;;;;;18.07;76.94;100695.78;1686571;83;25643;-76
2021/08/10 05:55:13;;;;;;;9.18;5.08;;;;;;;18.34;76.88;100687.86;1709880;83;28043;-76
2021/08/10 05:57:39;;;;;;;16.80;10.58;;;;;;;18.56;74.82;100683.16;1710145;83;25709;-76
2021/08/10 06:00:08;;;;;;;9.35;6.65;;;;;;;18.78;74.99;100689.14;1710566;83;25748;-75
2021/08/10 06:02:36;;;;;;;8.00;5.57;;;;;;;19.03;75.36;100682.36;1710275;83;25683;-75
2021/08/10 06:05:06;;;;;;;10.38;7.15;;;;;;;19.27;75.30;100683.83;1710563;83;25722;-75
2021/08/10 06:07:32;;;;;;;10.00;5.92;;;;;;;19.52;75.06;100683.00;1685977;83;27299;-75
2021/08/10 06:09:58;;;;;;;7.53;4.17;;;;;;;19.72;74.14;100676.94;1710290;83;25841;-75
2021/08/10 06:12:24;;;;;;;6.40;3.92;;;;;;;19.86;72.46;100679.20;1710571;83;25707;-75
2021/08/10 06:14:51;;;;;;;7.00;3.80;;;;;;;20.01;70.94;100683.80;1710083;83;26659;-74
2021/08/10 06:17:18;;;;;;;10.30;3.90;;;;;;;20.16;70.07;100688.98;1710438;83;25891;-76
2021/08/10 06:19:44;;;;;;;8.60;4.12;;;;;;;20.34;70.12;100687.91;1710392;83;27919;-75
2021/08/10 06:22:11;;;;;;;7.15;4.05;;;;;;;20.49;68.75;100686.99;1708823;83;25713;-75
2021/08/10 06:24:37;;;;;;;5.03;3.62;;;;;;;20.64;68.21;100687.28;1708015;84;25666;-75
2021/08/10 06:27:04;;;;;;;5.72;3.55;;;;;;;20.79;67.61;100690.46;1707825;83;25697;-75
2021/08/10 06:29:30;;;;;;;4.90;3.77;;;;;;;20.97;67.76;100687.97;1707865;84;25738;-75
2021/08/10 06:31:56;;;;;;;6.80;3.75;;;;;;;21.18;67.85;100682.00;1708620;83;27381;-75
2021/08/10 06:34:23;;;;;;;8.75;3.67;;;;;;;21.43;67.50;100682.91;1710244;83;25687;-75
2021/08/10 06:36:49;;;;;;;6.45;3.52;;;;;;;21.65;66.53;100681.23;1710319;83;25718;-76
2021/08/10 06:39:15;;;;;;;7.50;4.03;;;;;;;21.85;66.10;100670.85;1685894;84;25702;-75
2021/08/10 06:41:42;;;;;;;4.22;3.10;;;;;;;22.10;65.09;100682.70;1708811;83;25743;-76
2021/08/10 06:44:08;;;;;;;6.22;3.20;;;;;;;22.32;63.33;100680.98;1710424;83;27417;-76
2021/08/10 06:46:34;;;;;;;5.08;3.22;;;;;;;22.48;62.89;100681.52;1710438;83;25706;-76
2021/08/10 06:49:01;;;;;;;6.47;3.25;;;;;;;22.71;63.26;100677.19;1710403;83;25804;-75
2021/08/10 06:51:28;;;;;;;10.40;3.20;;;;;;;22.98;62.79;100676.95;1709993;83;26343;-76
2021/08/10 06:53:54;;;;;;;5.22;3.05;;;;;;;23.24;61.72;100686.20;1710532;83;25734;-76
2021/08/10 06:56:21;;;;;;;5.30;3.17;;;;;;;23.51;61.14;100681.20;1710200;83;27427;-76
2021/08/10 06:58:47;;;;;;;2.95;2.58;;;;;;;23.81;61.06;100681.52;1709998;83;26468;-76
2021/08/10 07:01:15;;;;;;;5.45;2.75;;;;;;;24.13;59.45;100680.23;1710458;83;25721;-76
2021/08/10 07:03:42;;;;;;;5.42;2.92;;;;;;;24.36;58.81;100672.94;1686096;83;26944;-76
2021/08/10 07:06:11;;;;;;;7.28;2.52;;;;;;;24.60;58.57;100674.75;1710616;83;25698;-76
2021/08/10 07:08:38;;;;;;;5.13;2.83;;;;;;;24.82;56.72;100667.82;1710736;83;27324;-75
2021/08/10 07:11:05;;;;;;;3.62;3.00;;;;;;;24.93;56.40;100658.31;1710440;83;26105;-75
2021/08/10 07:13:32;;;;;;;7.30;3.33;;;;;;;25.08;55.35;100666.56;1710484;83;25713;-76
2021/08/10 07:15:58;;;;;;;4.85;2.77;;;;;;;25.15;55.11;100660.44;1710256;83;25785;-75
2021/08/10 07:18:25;;;;;;;6.65;3.33;;;;;;;25.36;55.61;100662.95;1709790;83;25785;-76
2021/08/10 07:20:51;;;;;;;4.45;3.25;;;;;;;25.55;54.70;100652.00;1710490;83;27295;-76
2021/08/10 07:23:17;;;;;;;5.08;3.30;;;;;;;25.76;54.57;100658.61;1657770;84;25710;-75
2021/08/10 07:25:44;;;;;;;4.83;2.95;;;;;;;25.93;54.25;100652.16;1681541;84;25756;-74
2021/08/10 07:28:11;;;;;;;9.23;3.25;;;;;;;26.12;53.97;100652.29;1680241;85;25711;-77
2021/08/10 07:30:37;;;;;;;7.00;3.02;;;;;;;26.34;53.43;100650.72;1681665;85;25711;-77
2021/08/10 07:33:04;;;;;;;3.60;2.92;;;;;;;26.56;53.32;100656.88;1681594;85;27383;-77
2021/08/10 07:35:30;;;;;;;7.28;2.72;;;;;;;26.81;52.51;100655.28;1680469;84;25783;-75
2021/08/10 07:37:56;;;;;;;11.08;3.30;;;;;;;27.00;52.77;100647.75;1679675;84;25744;-76
2021/08/10 07:40:23;;;;;;;7.85;3.20;;;;;;;27.37;52.77;100652.30;1669943;85;25730;-76
2021/08/10 07:42:49;;;;;;;8.50;3.42;;;;;;;27.71;51.53;100657.80;1682278;85;25932;-76
2021/08/10 07:45:16;;;;;;;9.45;3.62;;;;;;;27.86;50.62;100653.45;1681890;85;28042;-76
2021/08/10 07:47:42;;;;;;;5.10;2.87;;;;;;;28.06;49.83;100659.92;1680349;84;26468;-76
2021/08/10 07:50:11;;;;;;;6.05;2.70;;;;;;;28.27;48.36;100656.00;1672190;85;25988;-76
2021/08/10 07:52:38;;;;;;;5.37;3.58;;;;;;;28.34;47.38;100657.11;1681061;83;26350;-76
2021/08/10 07:55:07;;;;;;;4.72;3.33;;;;;;;28.30;47.81;100645.43;1680843;85;25676;-76
2021/08/10 07:57:33;;;;;;;7.37;3.25;;;;;;;28.53;48.77;100643.84;1680708;85;27326;-76
2021/08/10 08:00:00;;;;;;;3.60;2.90;;;;;;;28.92;48.52;100642.98;1680716;85;25708;-76
2021/08/10 08:02:26;;;;;;;3.45;3.10;;;;;;;29.12;47.43;100645.78;1682221;84;25692;-76
2021/08/10 08:04:53;;;;;;;3.12;2.83;;;;;;;29.18;45.53;100654.60;1647388;84;25715;-76
2021/08/10 08:07:19;;;;;;;5.08;3.27;;;;;;;29.06;45.59;100653.24;1695780;84;25912;-76
2021/08/10 08:09:45;;;;;;;6.70;3.35;;;;;;;29.04;45.15;100640.33;1682120;84;27404;-76
2021/08/10 08:12:12;;;;;;;4.87;3.35;;;;;;;29.22;45.95;100648.98;1681412;85;25776;-76
2021/08/10 08:14:38;;;;;;;6.75;3.65;;;;;;;29.27;45.18;100646.28;1680766;84;25898;-76
2021/08/10 08:17:05;;;;;;;4.62;3.98;;;;;;;29.28;45.47;100645.08;1681629;83;26371;-76
2021/08/10 08:19:31;;;;;;;4.30;3.58;;;;;;;29.46;45.09;100646.08;1669916;85;25683;-76
2021/08/10 08:22:01;;;;;;;5.75;3.92;;;;;;;29.60;44.76;100641.61;1697873;84;27407;-76
2021/08/10 08:24:27;;;;;;;4.95;3.72;;;;;;;29.75;43.40;100647.03;1708781;83;25651;-76
2021/08/10 08:26:54;;;;;;;6.60;4.05;;;;;;;29.89;44.00;100644.55;1710237;83;25852;-76
2021/08/10 08:29:20;;;;;;;4.40;3.92;;;;;;;30.05;43.14;100642.99;1710442;83;25849;-76
2021/08/10 08:31:47;;;;;;;8.35;4.12;;;;;;;30.17;43.08;100651.46;1710151;83;25762;-77
2021/08/10 08:34:14;;;;;;;5.50;3.80;;;;;;;30.12;41.96;100639.44;1686346;83;27280;-77
2021/08/10 08:36:42;;;;;;;3.65;3.10;;;;;;;30.30;42.50;100640.37;1710124;83;26401;-77
2021/08/10 08:39:11;;;;;;;8.40;4.25;;;;;;;30.46;39.74;100642.41;1710621;83;25634;-76
2021/08/10 08:41:38;;;;;;;5.40;4.90;;;;;;;30.63;40.77;100646.55;1710450;83;26151;-77
2021/08/10 08:44:05;;;;;;;6.75;5.10;;;;;;;30.86;40.87;100647.71;1709903;83;25865;-77
2021/08/10 08:46:33;;;;;;;7.65;4.85;;;;;;;31.06;39.42;100648.98;1710408;83;27392;-77
2021/08/10 08:49:01;;;;;;;4.53;3.35;;;;;;;31.13;39.57;100644.44;1709872;83;25832;-77
2021/08/10 08:51:29;;;;;;;5.17;3.90;;;;;;;31.30;38.71;100642.36;1687011;83;25725;-76
2021/08/10 08:53:56;;;;;;;3.60;2.98;;;;;;;31.36;37.81;100635.75;1710553;83;25811;-76
2021/08/10 08:56:24;;;;;;;2.92;1.90;;;;;;;31.67;37.72;100645.05;1710237;83;25799;-76
2021/08/10 08:58:52;;;;;;;6.40;2.13;;;;;;;31.87;36.89;100651.02;1710331;83;27360;-77
2021/08/10 09:01:19;;;;;;;2.83;1.90;;;;;;;31.85;35.26;100640.28;1710165;83;25754;-77
2021/08/10 09:03:46;;;;;;;4.92;2.37;;;;;;;31.97;35.78;100643.68;1710457;83;25708;-77
2021/08/10 09:06:12;;;;;;;5.85;2.45;;;;;;;32.11;35.68;100641.06;1710427;83;26343;-76
2021/08/10 09:08:40;;;;;;;5.58;2.40;;;;;;;32.05;34.95;100640.05;1710377;83;25799;-76
2021/08/10 09:11:12;;;;;;;5.62;3.08;;;;;;;32.20;35.23;100631.38;1710536;83;27308;-76
2021/08/10 09:13:42;;;;;;;5.00;3.00;;;;;;;32.37;35.17;100640.41;1709941;83;25826;-76
2021/08/10 09:16:09;;;;;;;4.58;2.20;;;;;;;32.26;33.97;100632.98;1685140;83;25761;-76
2021/08/10 09:18:38;;;;;;;3.05;2.27;;;;;;;32.05;33.75;100630.26;1710325;83;25663;-76
2021/08/10 09:21:12;;;;;;;;;;;;;;;31.97;34.03;100632.49;1712999;83;26505;-76
2021/08/10 09:23:56;;;;;;;4.67;2.20;;;;;;;32.10;33.50;100631.75;1710760;83;27357;-76
2021/08/10 09:26:42;;;;;;;4.83;2.22;;;;;;;32.15;33.05;100631.17;1710351;83;26480;-76
2021/08/10 09:29:08;;;;;;;5.10;2.02;;;;;;;32.07;31.92;100627.81;1709676;83;26403;-76
2021/08/10 09:31:46;;;;;;;8.38;1.90;;;;;;;31.96;32.48;100623.95;1710343;83;25725;-75
2021/08/10 09:34:27;;;;;;;2.87;2.00;;;;;;;32.10;32.11;100626.15;1710055;83;25855;-75
2021/08/10 09:36:55;;;;;;;3.58;2.22;;;;;;;32.27;32.05;100624.77;1710614;83;27327;-75
2021/08/10 09:39:34;;;;;;;4.77;1.97;;;;;;;32.35;31.85;100619.09;1710599;83;25628;-76
2021/08/10 09:42:12;;;;;;;5.03;1.57;;;;;;;32.34;32.06;100616.75;1710521;83;25794;-76
2021/08/10 09:44:59;;;;;;;7.08;2.52;;;;;;;32.39;31.44;100611.34;1710359;83;26369;-75
2021/08/10 09:47:39;;;;;;;4.03;1.80;;;;;;;32.43;32.25;100610.44;1705107;83;25675;-75
2021/08/10 09:50:19;;;;;;;4.25;1.65;;;;;;;32.66;31.73;100605.85;1710395;83;27323;-76
2021/08/10 09:52:46;;;;;;;3.83;2.05;;;;;;;32.99;31.54;100601.25;1687162;83;25757;-76
2021/08/10 09:55:16;;;;;;;4.47;2.10;;;;;;;33.11;30.60;100607.38;1710630;83;25702;-77
2021/08/10 09:58:01;;;;;;;3.70;2.00;;;;;;;32.92;30.64;100609.30;1700149;83;25722;-75
2021/08/10 10:00:42;;;;;;;3.85;1.80;;;;;;;32.90;31.33;100601.20;1686751;83;25865;-75
2021/08/10 10:03:22;;;;;;;3.65;2.10;;;;;;;33.21;31.28;100601.88;1686503;83;27223;-75
2021/08/10 10:05:50;;;;;;;2.37;1.77;;;;;;;32.83;29.78;100601.44;1710234;83;25913;-75
2021/08/10 10:08:21;;;;;;;3.70;2.10;;;;;;;32.36;30.76;100588.45;1709614;83;26361;-75
2021/08/10 10:10:51;;;;;;;6.60;2.02;;;;;;;32.59;31.60;100580.88;1709427;83;26342;-75
2021/08/10 10:13:20;;;;;;;4.80;2.30;;;;;;;32.99;31.44;100585.84;1710415;83;25707;-75
2021/08/10 10:15:48;;;;;;;3.50;1.77;;;;;;;33.01;30.47;100579.16;1710466;83;27907;-75
2021/08/10 10:18:14;;;;;;;1.82;1.62;;;;;;;32.96;30.26;100567.14;1710194;83;25695;-75
2021/08/10 10:20:45;;;;;;;2.52;1.80;;;;;;;33.19;30.77;100567.94;1710559;83;25801;-75
2021/08/10 10:23:24;;;;;;;2.95;2.08;;;;;;;33.67;29.58;100560.02;1709624;83;26357;-75
2021/08/10 10:25:54;;;;;;;2.05;1.62;;;;;;;33.71;29.64;100555.69;1708713;83;25782;-75
2021/08/10 10:28:22;;;;;;;2.58;1.60;;;;;;;33.80;29.18;100555.09;1687181;83;27006;-76
2021/08/10 10:30:49;;;;;;;3.50;1.45;;;;;;;33.77;29.10;100553.21;1708700;83;25774;-76
2021/08/10 10:33:17;;;;;;;4.92;1.80;;;;;;;34.10;29.39;100553.27;1709308;83;26351;-76
2021/08/10 10:35:45;;;;;;;3.02;1.72;;;;;;;34.30;28.78;100544.42;1710236;83;25722;-77
2021/08/10 10:38:13;;;;;;;3.20;1.95;;;;;;;34.30;28.58;100549.41;1710813;83;25710;-76
2021/08/10 10:40:40;;;;;;;4.22;1.90;;;;;;;34.23;28.18;100546.91;1710273;83;28036;-77
2021/08/10 10:43:07;;;;;;;2.30;1.80;;;;;;;34.22;28.91;100544.73;1710918;83;25748;-76
2021/08/10 10:45:41;;;;;;;4.60;1.50;;;;;;;34.57;29.27;100550.64;1710560;83;25863;-76
2021/08/10 10:48:31;;;;;;;3.17;2.10;;;;;;;34.95;28.72;100554.95;1710036;83;25729;-76
2021/08/10 10:51:11;;;;;;;4.87;2.12;;;;;;;34.82;27.09;100555.16;1709952;83;25807;-76
2021/08/10 10:53:44;;;;;;;2.65;1.70;;;;;;;34.29;26.55;100548.46;1710492;83;27327;-76
2021/08/10 10:56:30;;;;;;;5.67;2.02;;;;;;;34.12;27.85;100559.95;1710630;83;26419;-76
2021/08/10 10:59:36;;;;;;;4.00;1.75;;;;;;;34.06;27.64;100552.02;1710687;83;26367;-76
2021/08/10 11:02:22;;;;;;;2.40;1.55;;;;;;;34.05;28.22;100557.45;1651791;86;25854;-76
2021/08/10 11:05:22;;;;;;;6.37;2.00;;;;;;;33.86;27.92;100537.79;1652455;86;25793;-76
2021/08/10 11:07:55;;;;;;;2.42;1.70;;;;;;;34.08;28.25;100526.30;1652175;86;27706;-76
2021/08/10 11:10:46;;;;;;;5.70;2.02;;;;;;;34.60;28.60;100530.05;1653430;86;25886;-76
2021/08/10 11:13:35;;;;;;;2.20;1.82;;;;;;;34.98;28.02;100532.94;1653726;86;25751;-76
2021/08/10 11:16:03;;;;;;;2.90;1.90;;;;;;;34.89;27.17;100539.38;1629303;86;26271;-75
2021/08/10 11:18:30;;;;;;;3.37;1.90;;;;;;;34.79;27.76;100529.41;1629401;86;25952;-75
2021/08/10 11:21:04;;;;;;;4.90;1.90;;;;;;;35.04;28.08;100523.23;1624042;88;27498;-76
2021/08/10 11:23:35;;;;;;;3.52;1.77;;;;;;;35.36;28.17;100525.94;1614838;88;25892;-76
2021/08/10 11:26:09;;;;;;;2.65;1.65;;;;;;;35.34;27.76;100519.38;1615123;88;25705;-76
2021/08/10 11:28:49;;;;;;;2.40;1.80;;;;;;;35.42;27.50;100527.49;1615028;88;27678;-76
2021/08/10 11:31:36;;;;;;;3.08;1.65;;;;;;;35.19;27.16;100517.09;1615717;88;25882;-76
2021/08/10 11:34:06;;;;;;;2.80;2.02;;;;;;;35.27;27.62;100521.14;1593635;88;27368;-76